Terminal Aerodrome Forecast
Issued by NWS Oklahoma City, OK

Home | Current Version | Previous Version | Text Only | Print | Product List | Glossary On
Versions: 1 2 3 4 5 6 7 8 9 10 11 12 13 14 15 16 17
000
FTUS44 KOUN 211142
TAFOUN
TAF
KOUN 211142Z 2112/2212 15003KT P6SM SCT250
     FM211700 16010KT P6SM OVC100
     FM212000 15012KT P6SM VCSH OVC060
     FM220000 15008KT 6SM -SHRA BR OVC030 PROB30 2200/2204 4SM -SHRA
      BKN025
     FM220400 31006KT P6SM SCT010 BKN060=

USA.gov is the U.S. government's official web portal to all federal, state and local government web resources and services.